Time;durP1;ratioP1;P1;durP2;ratioP2;P2;SDS_P1;SDS_P2;PMS_P1;PMS_P2;Temp;Humidity;BMP_temperature;BMP_pressure;BME280_temperature;BME280_humidity;BME280_pressure;Samples;Min_cycle;Max_cycle;Signal;HPM_P1;HPM_P2
2023/07/24 00:00:25;;;;;;;11.18;6.80;;;;;;;;;;5095460;28;20040;-81
2023/07/24 00:02:53;;;;;;;12.32;6.05;;;;;;;;;;5094529;28;20044;-80
2023/07/24 00:05:19;;;;;;;12.10;6.88;;;;;;;;;;5076886;28;20060;-80
2023/07/24 00:07:45;;;;;;;12.88;6.80;;;;;;;;;;5095345;28;20181;-81
2023/07/24 00:10:12;;;;;;;13.70;6.80;;;;;;;;;;5094579;28;20040;-81
2023/07/24 00:12:38;;;;;;;13.02;6.88;;;;;;;;;;5097031;28;20441;-80
2023/07/24 00:15:05;;;;;;;11.68;6.22;;;;;;;;;;5097812;28;20369;-80
2023/07/24 00:17:31;;;;;;;13.75;6.13;;;;;;;;;;5103627;28;20039;-81
2023/07/24 00:19:57;;;;;;;10.20;5.95;;;;;;;;;;5095672;28;20040;-80
2023/07/24 00:22:23;;;;;;;11.07;5.82;;;;;;;;;;5077668;28;20130;-79
2023/07/24 00:24:49;;;;;;;11.75;5.97;;;;;;;;;;5076759;28;20040;-80
2023/07/24 00:27:15;;;;;;;10.30;5.63;;;;;;;;;;5077429;28;20048;-81
2023/07/24 00:29:41;;;;;;;9.93;6.30;;;;;;;;;;5107141;28;20040;-80
2023/07/24 00:32:08;;;;;;;11.95;6.13;;;;;;;;;;5097488;28;20040;-80
2023/07/24 00:34:34;;;;;;;13.35;6.50;;;;;;;;;;5081034;28;20040;-80
2023/07/24 00:37:00;;;;;;;9.32;5.97;;;;;;;;;;5057105;28;20045;-79
2023/07/24 00:39:28;;;;;;;11.52;6.25;;;;;;;;;;5060624;28;20055;-79
2023/07/24 00:41:54;;;;;;;11.38;5.97;;;;;;;;;;5076764;28;20503;-79
2023/07/24 00:44:20;;;;;;;12.73;6.63;;;;;;;;;;5092836;28;20044;-80
2023/07/24 00:46:46;;;;;;;13.07;6.20;;;;;;;;;;5076291;28;20415;-80
2023/07/24 00:49:13;;;;;;;10.95;6.68;;;;;;;;;;5094208;28;20115;-79
2023/07/24 00:51:39;;;;;;;12.77;6.72;;;;;;;;;;5076657;28;20124;-79
2023/07/24 00:54:06;;;;;;;12.55;6.88;;;;;;;;;;5094506;28;20048;-79
2023/07/24 00:56:33;;;;;;;13.93;6.95;;;;;;;;;;5094229;28;20048;-79
2023/07/24 00:58:59;;;;;;;12.63;7.13;;;;;;;;;;5094294;28;20036;-79
2023/07/24 01:01:26;;;;;;;12.43;7.50;;;;;;;;;;5094450;28;20036;-79
2023/07/24 01:03:52;;;;;;;13.05;7.60;;;;;;;;;;5058943;28;20112;-78
2023/07/24 01:06:19;;;;;;;13.95;7.07;;;;;;;;;;5093839;28;20036;-80
2023/07/24 01:08:45;;;;;;;12.27;7.28;;;;;;;;;;5094532;28;20085;-80
2023/07/24 01:11:14;;;;;;;13.23;7.18;;;;;;;;;;5076477;28;20044;-79
2023/07/24 01:13:42;;;;;;;13.52;7.57;;;;;;;;;;5091824;28;20044;-80
2023/07/24 01:16:14;;;;;;;18.42;7.97;;;;;;;;;;5111123;28;20047;-79
2023/07/24 01:18:42;;;;;;;12.95;7.70;;;;;;;;;;5107996;28;20050;-79
2023/07/24 01:21:09;;;;;;;15.38;8.30;;;;;;;;;;5094595;28;20040;-79
2023/07/24 01:23:35;;;;;;;13.93;8.20;;;;;;;;;;5089446;28;20127;-80
2023/07/24 01:26:02;;;;;;;15.05;8.20;;;;;;;;;;5054445;28;20047;-79
2023/07/24 01:28:29;;;;;;;13.20;8.60;;;;;;;;;;5055187;28;20040;-80
2023/07/24 01:30:55;;;;;;;12.80;7.90;;;;;;;;;;5086892;28;20459;-79
2023/07/24 01:33:22;;;;;;;14.95;9.38;;;;;;;;;;5111640;28;20044;-78
2023/07/24 01:35:54;;;;;;;13.57;9.05;;;;;;;;;;5095972;28;20048;-79
2023/07/24 01:38:20;;;;;;;16.67;9.10;;;;;;;;;;5090992;28;20037;-79
2023/07/24 01:40:46;;;;;;;15.98;9.90;;;;;;;;;;5073992;28;20063;-79
2023/07/24 01:43:12;;;;;;;17.88;10.38;;;;;;;;;;5089256;28;20044;-79
2023/07/24 01:45:38;;;;;;;15.52;10.00;;;;;;;;;;5074712;28;20384;-80
2023/07/24 01:48:05;;;;;;;15.23;10.25;;;;;;;;;;5093081;28;20388;-80
2023/07/24 01:50:31;;;;;;;15.00;10.35;;;;;;;;;;5075154;28;20496;-79
2023/07/24 01:52:57;;;;;;;15.18;9.90;;;;;;;;;;5093180;28;20361;-79
2023/07/24 01:55:23;;;;;;;16.00;10.30;;;;;;;;;;5075292;28;20048;-79
2023/07/24 01:57:50;;;;;;;15.05;10.95;;;;;;;;;;5075327;28;20032;-78
2023/07/24 02:00:16;;;;;;;14.07;10.55;;;;;;;;;;5093265;28;20515;-79
2023/07/24 02:02:42;;;;;;;18.00;11.25;;;;;;;;;;5091044;28;20074;-80
2023/07/24 02:05:08;;;;;;;18.05;11.55;;;;;;;;;;5075041;28;20044;-79
2023/07/24 02:07:35;;;;;;;17.35;12.25;;;;;;;;;;5093071;28;20396;-79
2023/07/24 02:10:01;;;;;;;18.35;12.70;;;;;;;;;;5093229;28;20044;-79
2023/07/24 02:12:27;;;;;;;16.58;11.88;;;;;;;;;;5094037;28;20036;-80
2023/07/24 02:14:54;;;;;;;16.75;12.02;;;;;;;;;;5108075;28;20127;-76
2023/07/24 02:17:20;;;;;;;16.35;12.23;;;;;;;;;;5097560;28;20032;-78
2023/07/24 02:19:46;;;;;;;16.13;11.40;;;;;;;;;;5078822;28;20462;-79
2023/07/24 02:22:13;;;;;;;16.83;13.00;;;;;;;;;;5093199;28;20557;-79
2023/07/24 02:24:39;;;;;;;18.40;13.07;;;;;;;;;;5091613;28;20044;-79
2023/07/24 02:27:06;;;;;;;16.95;12.63;;;;;;;;;;5093655;28;20522;-80
2023/07/24 02:29:32;;;;;;;16.80;12.48;;;;;;;;;;5093756;28;20079;-80
2023/07/24 02:31:59;;;;;;;16.15;12.60;;;;;;;;;;5074937;28;20044;-81
2023/07/24 02:34:27;;;;;;;18.25;13.05;;;;;;;;;;5074901;28;20373;-80
2023/07/24 02:36:53;;;;;;;17.70;12.05;;;;;;;;;;5093051;28;20040;-80
2023/07/24 02:39:20;;;;;;;17.05;13.57;;;;;;;;;;5093744;28;20044;-81
2023/07/24 02:41:46;;;;;;;17.15;13.07;;;;;;;;;;5077715;28;20047;-78
2023/07/24 02:44:13;;;;;;;17.27;12.98;;;;;;;;;;5097075;28;20119;-79
2023/07/24 02:46:39;;;;;;;18.75;13.88;;;;;;;;;;5096060;28;20058;-80
2023/07/24 02:49:05;;;;;;;16.65;13.45;;;;;;;;;;5078418;28;20557;-80
2023/07/24 02:51:31;;;;;;;17.42;13.70;;;;;;;;;;5096523;28;20040;-80
2023/07/24 02:53:58;;;;;;;18.58;14.20;;;;;;;;;;5079017;28;20048;-80
2023/07/24 02:56:24;;;;;;;17.17;13.95;;;;;;;;;;5097575;28;20119;-80
2023/07/24 02:58:50;;;;;;;16.60;13.30;;;;;;;;;;5078376;28;20052;-80
2023/07/24 03:01:16;;;;;;;17.33;12.73;;;;;;;;;;5062534;28;20044;-79
2023/07/24 03:03:42;;;;;;;16.08;13.43;;;;;;;;;;5096919;28;20040;-78
2023/07/24 03:06:08;;;;;;;14.32;12.23;;;;;;;;;;5096830;28;20408;-79
2023/07/24 03:08:34;;;;;;;16.23;12.35;;;;;;;;;;5096339;28;20381;-79
2023/07/24 03:11:02;;;;;;;16.10;12.15;;;;;;;;;;5096488;28;20585;-80
2023/07/24 03:13:30;;;;;;;17.80;12.50;;;;;;;;;;5096266;28;20079;-80
2023/07/24 03:15:57;;;;;;;19.10;12.18;;;;;;;;;;5095964;28;20089;-80
2023/07/24 03:18:24;;;;;;;17.67;11.30;;;;;;;;;;5078669;28;20056;-80
2023/07/24 03:20:51;;;;;;;15.43;10.93;;;;;;;;;;5117415;28;20111;-80
2023/07/24 03:23:17;;;;;;;16.13;11.73;;;;;;;;;;5109294;28;20062;-80
2023/07/24 03:25:43;;;;;;;13.60;11.20;;;;;;;;;;5078461;28;20043;-80
2023/07/24 03:28:09;;;;;;;16.15;11.07;;;;;;;;;;5096464;28;20452;-80
2023/07/24 03:30:36;;;;;;;16.33;10.35;;;;;;;;;;5095783;28;20079;-79
2023/07/24 03:33:02;;;;;;;15.80;10.68;;;;;;;;;;5095693;28;20068;-80
2023/07/24 03:35:28;;;;;;;16.08;10.27;;;;;;;;;;5103325;28;20035;-79
2023/07/24 03:37:54;;;;;;;15.27;10.65;;;;;;;;;;5098719;28;20341;-79
2023/07/24 03:40:21;;;;;;;14.48;10.65;;;;;;;;;;5116456;28;20040;-79
2023/07/24 03:42:47;;;;;;;15.50;10.50;;;;;;;;;;5085710;28;20047;-79
2023/07/24 03:45:13;;;;;;;17.52;10.07;;;;;;;;;;5095430;28;20087;-79
2023/07/24 03:47:39;;;;;;;15.20;10.02;;;;;;;;;;5096241;28;20446;-79
2023/07/24 03:50:05;;;;;;;15.27;9.98;;;;;;;;;;5095888;28;20055;-79
2023/07/24 03:52:31;;;;;;;13.93;10.43;;;;;;;;;;5094882;28;20460;-80
2023/07/24 03:54:57;;;;;;;14.20;10.25;;;;;;;;;;5095116;28;20048;-79
2023/07/24 03:57:24;;;;;;;13.55;10.15;;;;;;;;;;5095355;28;20378;-80
2023/07/24 03:59:50;;;;;;;14.32;9.73;;;;;;;;;;5077202;28;20052;-80
2023/07/24 04:02:16;;;;;;;16.63;10.40;;;;;;;;;;5095672;28;20131;-79
2023/07/24 04:04:42;;;;;;;13.93;9.80;;;;;;;;;;5077410;28;20402;-78
2023/07/24 04:07:08;;;;;;;15.07;9.43;;;;;;;;;;5095154;28;20044;-79
2023/07/24 04:09:34;;;;;;;14.52;9.98;;;;;;;;;;5076057;28;20055;-79
2023/07/24 04:12:02;;;;;;;13.68;9.52;;;;;;;;;;5094928;28;20036;-79
2023/07/24 04:14:28;;;;;;;14.13;9.13;;;;;;;;;;5094874;28;20040;-79
2023/07/24 04:16:55;;;;;;;13.35;8.90;;;;;;;;;;5095012;28;20051;-79
2023/07/24 04:19:21;;;;;;;14.77;9.15;;;;;;;;;;5095297;28;20127;-80
2023/07/24 04:21:47;;;;;;;13.75;9.02;;;;;;;;;;5095492;28;20028;-79
2023/07/24 04:24:13;;;;;;;11.25;8.65;;;;;;;;;;5091391;28;20051;-80
2023/07/24 04:26:40;;;;;;;11.95;8.93;;;;;;;;;;5077090;28;20044;-79
2023/07/24 04:29:06;;;;;;;13.68;9.48;;;;;;;;;;5080966;28;20443;-79
2023/07/24 04:31:33;;;;;;;12.32;9.57;;;;;;;;;;5095076;28;20040;-79
2023/07/24 04:33:59;;;;;;;16.45;9.48;;;;;;;;;;5094528;28;20115;-81
2023/07/24 04:36:25;;;;;;;16.55;10.18;;;;;;;;;;5076712;28;20044;-79
2023/07/24 04:38:51;;;;;;;15.82;10.20;;;;;;;;;;5094924;28;20044;-80
2023/07/24 04:41:17;;;;;;;13.98;9.75;;;;;;;;;;5079172;28;20052;-80
2023/07/24 04:43:43;;;;;;;14.52;10.55;;;;;;;;;;5099969;28;20059;-80
2023/07/24 04:46:09;;;;;;;14.10;10.00;;;;;;;;;;5095304;28;20448;-79
2023/07/24 04:48:36;;;;;;;15.02;10.48;;;;;;;;;;5076519;28;20047;-80
2023/07/24 04:51:02;;;;;;;15.25;11.13;;;;;;;;;;5094393;28;20072;-80
2023/07/24 04:53:28;;;;;;;14.40;11.00;;;;;;;;;;5094167;28;20093;-80
2023/07/24 04:55:54;;;;;;;15.40;10.95;;;;;;;;;;5094000;28;20075;-80
2023/07/24 04:58:21;;;;;;;16.85;11.00;;;;;;;;;;5093789;28;20505;-80
2023/07/24 05:00:47;;;;;;;15.77;10.90;;;;;;;;;;5093970;28;20040;-79
2023/07/24 05:03:13;;;;;;;18.17;10.80;;;;;;;;;;5093132;28;20040;-80
2023/07/24 05:05:39;;;;;;;14.77;10.73;;;;;;;;;;5075444;28;20082;-80
2023/07/24 05:08:06;;;;;;;14.98;10.68;;;;;;;;;;5081548;28;20055;-80
2023/07/24 05:10:37;;;;;;;14.82;10.95;;;;;;;;;;5080378;28;20428;-80
2023/07/24 05:13:04;;;;;;;13.05;10.85;;;;;;;;;;5094314;28;20165;-80
2023/07/24 05:15:30;;;;;;;18.95;11.65;;;;;;;;;;5094294;28;20460;-80
2023/07/24 05:17:56;;;;;;;13.80;10.98;;;;;;;;;;5094155;28;20075;-81
2023/07/24 05:20:22;;;;;;;15.13;11.77;;;;;;;;;;5076105;28;20082;-80
2023/07/24 05:22:48;;;;;;;13.65;10.82;;;;;;;;;;5075984;28;20051;-80
2023/07/24 05:25:14;;;;;;;14.65;10.90;;;;;;;;;;5075728;28;20074;-80
2023/07/24 05:27:40;;;;;;;18.38;10.48;;;;;;;;;;5074029;28;20074;-80
2023/07/24 05:30:07;;;;;;;15.98;11.63;;;;;;;;;;5086603;28;20408;-80
2023/07/24 05:32:33;;;;;;;15.48;10.35;;;;;;;;;;5094718;28;20062;-80
2023/07/24 05:34:59;;;;;;;16.17;9.93;;;;;;;;;;5094894;28;20056;-80
2023/07/24 05:37:25;;;;;;;13.20;10.15;;;;;;;;;;5077416;28;20048;-78
2023/07/24 05:39:51;;;;;;;13.15;10.90;;;;;;;;;;5098082;28;20048;-78
2023/07/24 05:42:17;;;;;;;14.45;10.40;;;;;;;;;;5076584;28;20036;-80
2023/07/24 05:44:43;;;;;;;13.82;10.40;;;;;;;;;;5093970;28;20091;-80
2023/07/24 05:47:09;;;;;;;14.32;10.50;;;;;;;;;;5076011;28;20051;-80
2023/07/24 05:49:35;;;;;;;14.63;10.10;;;;;;;;;;5094000;28;20423;-80
2023/07/24 05:52:02;;;;;;;15.35;10.45;;;;;;;;;;5075833;28;20051;-80
2023/07/24 05:54:28;;;;;;;13.90;10.32;;;;;;;;;;5093314;28;20054;-80
2023/07/24 05:56:54;;;;;;;13.70;9.75;;;;;;;;;;5092881;28;20096;-80
2023/07/24 05:59:20;;;;;;;12.57;10.10;;;;;;;;;;5093512;28;20389;-80
2023/07/24 06:01:46;;;;;;;19.23;10.27;;;;;;;;;;5075657;28;20059;-81
2023/07/24 06:04:12;;;;;;;15.10;10.40;;;;;;;;;;5075429;28;20040;-80
2023/07/24 06:06:38;;;;;;;13.90;10.15;;;;;;;;;;5094097;28;20161;-80
2023/07/24 06:09:04;;;;;;;15.02;11.00;;;;;;;;;;5093442;28;20050;-80
2023/07/24 06:11:30;;;;;;;14.23;10.60;;;;;;;;;;5059044;28;20069;-80
2023/07/24 06:13:57;;;;;;;15.27;10.98;;;;;;;;;;5092730;28;20392;-80
2023/07/24 06:16:23;;;;;;;15.57;11.60;;;;;;;;;;5070635;28;20046;-80
2023/07/24 06:18:49;;;;;;;14.35;10.60;;;;;;;;;;5095395;28;20397;-80
2023/07/24 06:21:15;;;;;;;15.88;10.80;;;;;;;;;;5076884;28;20078;-80
2023/07/24 06:23:41;;;;;;;14.45;10.05;;;;;;;;;;5093087;28;20043;-80
2023/07/24 06:26:07;;;;;;;13.35;10.60;;;;;;;;;;5075387;28;20066;-80
2023/07/24 06:28:33;;;;;;;12.95;9.98;;;;;;;;;;5096527;28;20489;-80
2023/07/24 06:30:59;;;;;;;14.73;10.13;;;;;;;;;;5094578;28;20051;-76
2023/07/24 06:33:25;;;;;;;14.60;10.05;;;;;;;;;;5092731;28;20044;-76
2023/07/24 06:35:51;;;;;;;13.80;10.02;;;;;;;;;;5091736;28;20510;-76
2023/07/24 06:38:18;;;;;;;15.50;10.73;;;;;;;;;;5093237;28;20044;-76
2023/07/24 06:40:44;;;;;;;18.30;10.55;;;;;;;;;;5113089;28;20526;-77
2023/07/24 06:43:10;;;;;;;15.35;10.50;;;;;;;;;;5109980;28;20153;-76
2023/07/24 06:45:36;;;;;;;15.57;10.20;;;;;;;;;;5090969;28;20140;-77
2023/07/24 06:48:02;;;;;;;14.57;9.68;;;;;;;;;;5080598;28;20404;-77
2023/07/24 06:50:29;;;;;;;14.05;9.73;;;;;;;;;;5092118;28;20044;-77
2023/07/24 06:52:55;;;;;;;14.10;9.88;;;;;;;;;;5091748;28;20047;-77
2023/07/24 06:55:21;;;;;;;14.88;10.77;;;;;;;;;;5091177;28;20425;-77
2023/07/24 06:57:47;;;;;;;17.30;10.32;;;;;;;;;;5112226;28;20047;-76
2023/07/24 07:00:13;;;;;;;14.07;10.10;;;;;;;;;;5103759;28;20119;-76
2023/07/24 07:02:40;;;;;;;14.70;9.82;;;;;;;;;;5090895;28;20050;-75
2023/07/24 07:05:06;;;;;;;13.68;10.30;;;;;;;;;;5091836;28;20044;-77
2023/07/24 07:07:32;;;;;;;13.48;10.13;;;;;;;;;;5071535;28;20044;-77
2023/07/24 07:09:58;;;;;;;12.98;9.20;;;;;;;;;;5092682;28;20065;-77
2023/07/24 07:12:24;;;;;;;14.27;9.52;;;;;;;;;;5092065;28;20105;-76
2023/07/24 07:14:50;;;;;;;14.43;9.95;;;;;;;;;;5072020;28;20492;-76
2023/07/24 07:17:17;;;;;;;15.27;9.75;;;;;;;;;;5086371;28;20117;-76
2023/07/24 07:19:43;;;;;;;16.17;9.80;;;;;;;;;;5084021;28;20044;-75
2023/07/24 07:22:09;;;;;;;15.57;9.98;;;;;;;;;;5090130;28;20040;-76
2023/07/24 07:24:35;;;;;;;14.30;9.85;;;;;;;;;;5082526;28;20047;-77
2023/07/24 07:27:01;;;;;;;15.45;9.52;;;;;;;;;;5093800;28;20136;-77
2023/07/24 07:29:27;;;;;;;12.95;9.32;;;;;;;;;;5076169;28;20530;-78
2023/07/24 07:31:53;;;;;;;18.73;10.05;;;;;;;;;;5094346;28;20408;-78
2023/07/24 07:34:19;;;;;;;16.42;9.65;;;;;;;;;;5095144;28;20055;-77
2023/07/24 07:36:45;;;;;;;15.18;9.10;;;;;;;;;;5095636;28;20059;-76
2023/07/24 07:39:12;;;;;;;17.52;10.10;;;;;;;;;;5093916;28;20047;-76
2023/07/24 07:41:38;;;;;;;18.65;9.80;;;;;;;;;;5095456;28;20567;-77
2023/07/24 07:44:04;;;;;;;14.75;9.27;;;;;;;;;;5077298;28;20044;-77
2023/07/24 07:46:30;;;;;;;14.65;9.77;;;;;;;;;;5095652;28;20048;-77
2023/07/24 07:48:56;;;;;;;17.92;9.60;;;;;;;;;;5095724;28;20044;-76
2023/07/24 07:51:25;;;;;;;17.52;9.98;;;;;;;;;;5094756;28;20507;-76
2023/07/24 07:53:51;;;;;;;16.05;10.00;;;;;;;;;;5076940;28;20055;-78
2023/07/24 07:56:17;;;;;;;16.00;9.27;;;;;;;;;;5095357;28;20051;-78
2023/07/24 07:58:43;;;;;;;21.50;10.43;;;;;;;;;;5077250;28;20400;-78
2023/07/24 08:01:09;;;;;;;16.50;9.98;;;;;;;;;;5077504;28;20040;-77
2023/07/24 08:03:36;;;;;;;14.82;9.35;;;;;;;;;;5095026;28;20044;-77
2023/07/24 08:06:02;;;;;;;14.60;9.23;;;;;;;;;;5075599;28;20055;-77
2023/07/24 08:08:28;;;;;;;15.50;9.30;;;;;;;;;;5076075;28;20044;-77
2023/07/24 08:10:55;;;;;;;14.93;9.65;;;;;;;;;;5076599;28;20138;-78
2023/07/24 08:13:21;;;;;;;16.75;8.93;;;;;;;;;;5076318;28;20456;-79
2023/07/24 08:15:47;;;;;;;15.32;8.90;;;;;;;;;;5076493;28;20437;-78
2023/07/24 08:18:13;;;;;;;18.50;8.65;;;;;;;;;;5094798;28;20081;-78
2023/07/24 08:20:40;;;;;;;18.55;9.18;;;;;;;;;;5094648;28;20493;-77
2023/07/24 08:23:06;;;;;;;13.10;8.65;;;;;;;;;;5094509;28;20044;-76
2023/07/24 08:25:32;;;;;;;15.25;8.80;;;;;;;;;;5093686;28;20502;-77
2023/07/24 08:27:58;;;;;;;15.43;8.45;;;;;;;;;;5094279;28;20044;-77
2023/07/24 08:30:24;;;;;;;15.68;8.85;;;;;;;;;;5076089;28;20078;-77
2023/07/24 08:32:51;;;;;;;14.25;8.57;;;;;;;;;;5094447;28;20143;-77
2023/07/24 08:35:17;;;;;;;14.07;8.50;;;;;;;;;;5093127;28;20043;-77
2023/07/24 08:37:44;;;;;;;12.73;7.97;;;;;;;;;;5073572;28;20068;-76
2023/07/24 08:40:10;;;;;;;15.93;7.88;;;;;;;;;;5093550;28;20040;-77
2023/07/24 08:42:39;;;;;;;14.57;7.47;;;;;;;;;;5094215;28;20040;-78
2023/07/24 08:45:09;;;;;;;14.32;8.38;;;;;;;;;;5093566;28;20063;-78
2023/07/24 08:47:35;;;;;;;16.52;8.20;;;;;;;;;;5075750;28;20127;-77
2023/07/24 08:50:02;;;;;;;12.95;7.88;;;;;;;;;;5093898;28;20128;-78
2023/07/24 08:52:28;;;;;;;15.52;7.65;;;;;;;;;;5094496;28;20043;-78
2023/07/24 08:54:55;;;;;;;15.93;9.10;;;;;;;;;;5093536;28;20052;-78
2023/07/24 08:57:21;;;;;;;12.88;8.27;;;;;;;;;;5094297;28;20400;-76
2023/07/24 08:59:48;;;;;;;13.50;8.20;;;;;;;;;;5101409;28;20054;-76
2023/07/24 09:02:14;;;;;;;16.08;8.25;;;;;;;;;;5103439;28;20080;-75
2023/07/24 09:04:40;;;;;;;15.85;8.55;;;;;;;;;;5094100;28;20080;-77
2023/07/24 09:07:07;;;;;;;13.85;8.20;;;;;;;;;;5094091;28;20040;-77
2023/07/24 09:09:33;;;;;;;15.40;8.20;;;;;;;;;;5059134;28;20210;-78
2023/07/24 09:12:00;;;;;;;13.77;8.43;;;;;;;;;;5075476;28;20048;-78
2023/07/24 09:14:27;;;;;;;11.88;7.40;;;;;;;;;;5092233;28;20055;-77
2023/07/24 09:17:06;;;;;;;15.63;8.02;;;;;;;;;;5093754;28;20069;-78
2023/07/24 09:19:32;;;;;;;13.77;8.48;;;;;;;;;;5075521;28;20454;-78
2023/07/24 09:22:12;;;;;;;12.63;7.75;;;;;;;;;;5093475;28;20040;-75
2023/07/24 09:24:38;;;;;;;16.00;7.90;;;;;;;;;;5080102;28;20393;-76
2023/07/24 09:27:08;;;;;;;15.80;8.07;;;;;;;;;;5073177;28;20477;-78
2023/07/24 09:29:35;;;;;;;15.45;8.50;;;;;;;;;;5072760;28;20048;-77
2023/07/24 09:32:01;;;;;;;15.43;7.93;;;;;;;;;;5054852;28;20044;-77
2023/07/24 09:34:27;;;;;;;19.00;8.68;;;;;;;;;;5055351;28;20040;-78
2023/07/24 09:36:53;;;;;;;12.45;7.75;;;;;;;;;;5073462;28;20036;-77
2023/07/24 09:39:23;;;;;;;16.60;8.07;;;;;;;;;;5054657;28;20056;-77
2023/07/24 09:41:50;;;;;;;14.05;7.82;;;;;;;;;;5073068;28;20032;-76
2023/07/24 09:44:16;;;;;;;16.30;8.02;;;;;;;;;;5072402;28;20044;-77
2023/07/24 09:46:43;;;;;;;14.05;6.82;;;;;;;;;;5073620;28;20147;-76
2023/07/24 09:49:10;;;;;;;12.20;6.70;;;;;;;;;;5071881;28;20123;-77
2023/07/24 09:51:36;;;;;;;15.82;6.80;;;;;;;;;;5072568;28;20047;-76
2023/07/24 09:54:11;;;;;;;15.13;6.65;;;;;;;;;;5061631;28;20388;-77
2023/07/24 09:56:37;;;;;;;;;;;;;;;;;;5090898;28;20032;-71
2023/07/24 09:59:04;;;;;;;12.82;6.25;;;;;;;;;;5074196;28;20292;-71
2023/07/24 10:01:32;;;;;;;10.27;6.00;;;;;;;;;;5092747;28;20051;-73
2023/07/24 10:04:00;;;;;;;11.15;6.22;;;;;;;;;;5097609;28;20052;-71
2023/07/24 10:06:27;;;;;;;9.73;5.88;;;;;;;;;;5090871;28;20052;-71
2023/07/24 10:08:54;;;;;;;12.15;6.47;;;;;;;;;;5090628;28;20337;-71
2023/07/24 10:11:21;;;;;;;11.32;6.65;;;;;;;;;;5087307;28;20097;-76
2023/07/24 10:13:47;;;;;;;11.85;7.07;;;;;;;;;;5084863;28;20532;-77
2023/07/24 10:16:13;;;;;;;11.80;7.03;;;;;;;;;;5071709;28;20404;-77
2023/07/24 10:18:45;;;;;;;12.57;6.75;;;;;;;;;;5089187;28;20178;-77
2023/07/24 10:21:11;;;;;;;14.27;7.28;;;;;;;;;;5088187;28;20050;-77
2023/07/24 10:23:41;;;;;;;12.00;7.15;;;;;;;;;;5071967;28;20122;-77
2023/07/24 10:26:08;;;;;;;13.32;6.93;;;;;;;;;;5087516;28;20052;-76
2023/07/24 10:28:38;;;;;;;14.10;8.18;;;;;;;;;;5089165;28;20040;-81
2023/07/24 10:31:08;;;;;;;15.23;7.55;;;;;;;;;;5074490;28;20056;-80
2023/07/24 10:33:38;;;;;;;12.95;7.72;;;;;;;;;;5108977;28;20101;-82
2023/07/24 10:36:10;;;;;;;13.10;7.28;;;;;;;;;;5109881;28;20364;-81
2023/07/24 10:38:43;;;;;;;11.63;6.78;;;;;;;;;;5110348;28;20132;-81
2023/07/24 10:41:09;;;;;;;12.10;6.80;;;;;;;;;;5100179;28;20044;-82
2023/07/24 10:43:49;;;;;;;11.52;6.30;;;;;;;;;;5102810;28;20052;-82
2023/07/24 10:46:16;;;;;;;11.65;6.72;;;;;;;;;;5098352;28;20048;-75
2023/07/24 10:48:48;;;;;;;9.27;6.18;;;;;;;;;;5091303;28;20553;-75
2023/07/24 10:51:15;;;;;;;9.35;5.53;;;;;;;;;;5091558;28;20047;-75
2023/07/24 10:53:48;;;;;;;8.07;5.63;;;;;;;;;;5073675;28;20044;-75
2023/07/24 10:56:14;;;;;;;11.00;5.38;;;;;;;;;;5091713;28;20135;-76
2023/07/24 10:58:40;;;;;;;11.85;5.30;;;;;;;;;;5092135;28;20044;-75
2023/07/24 11:01:08;;;;;;;8.82;4.80;;;;;;;;;;5075336;28;20048;-75
2023/07/24 11:03:36;;;;;;;9.32;5.28;;;;;;;;;;5076552;28;20040;-75
2023/07/24 11:06:03;;;;;;;8.82;4.53;;;;;;;;;;5094990;28;20134;-76
2023/07/24 11:08:29;;;;;;;8.45;4.25;;;;;;;;;;5094804;28;20044;-75
2023/07/24 11:10:57;;;;;;;8.63;4.65;;;;;;;;;;5095354;28;20070;-75
2023/07/24 11:13:26;;;;;;;9.57;4.32;;;;;;;;;;5094538;28;20044;-74
2023/07/24 11:15:53;;;;;;;8.18;4.47;;;;;;;;;;5094561;28;20044;-74
2023/07/24 11:18:26;;;;;;;10.95;4.68;;;;;;;;;;5095401;28;20499;-75
2023/07/24 11:20:53;;;;;;;10.45;4.35;;;;;;;;;;5077169;28;20082;-75
2023/07/24 11:23:20;;;;;;;7.97;4.60;;;;;;;;;;5093487;28;20082;-76
2023/07/24 11:25:46;;;;;;;6.82;4.45;;;;;;;;;;5074811;28;20072;-75
2023/07/24 11:28:13;;;;;;;11.18;5.30;;;;;;;;;;5075205;28;20400;-75
2023/07/24 11:30:40;;;;;;;11.48;5.88;;;;;;;;;;5075129;28;20044;-75
2023/07/24 11:33:06;;;;;;;9.20;5.68;;;;;;;;;;5040218;28;20088;-75
2023/07/24 11:35:33;;;;;;;9.93;5.78;;;;;;;;;;5056772;28;20049;-75
2023/07/24 11:37:59;;;;;;;12.50;6.82;;;;;;;;;;5075148;28;20051;-75
2023/07/24 11:40:35;;;;;;;10.55;7.00;;;;;;;;;;5074801;28;20083;-75
2023/07/24 11:43:03;;;;;;;9.60;6.82;;;;;;;;;;5074576;28;20076;-75
2023/07/24 11:45:29;;;;;;;10.32;6.28;;;;;;;;;;5074174;28;20068;-75
2023/07/24 11:47:56;;;;;;;9.25;6.18;;;;;;;;;;5075292;28;20053;-75
2023/07/24 11:50:23;;;;;;;9.77;5.60;;;;;;;;;;5074629;28;20048;-75
2023/07/24 11:52:50;;;;;;;10.70;5.30;;;;;;;;;;5057070;28;20060;-75
2023/07/24 11:55:18;;;;;;;7.85;4.65;;;;;;;;;;5074355;28;20044;-75
2023/07/24 11:57:44;;;;;;;8.82;4.55;;;;;;;;;;5074398;28;20143;-75
2023/07/24 12:00:20;;;;;;;11.13;4.63;;;;;;;;;;5074905;28;20056;-75
2023/07/24 12:02:46;;;;;;;8.15;4.70;;;;;;;;;;5056360;28;20044;-75
2023/07/24 12:05:12;;;;;;;8.65;4.60;;;;;;;;;;5073140;28;20094;-75
2023/07/24 12:07:39;;;;;;;9.40;5.78;;;;;;;;;;5037637;28;20041;-75
2023/07/24 12:10:09;;;;;;;10.05;5.15;;;;;;;;;;5056059;28;20460;-75
2023/07/24 12:12:38;;;;;;;7.60;4.65;;;;;;;;;;5074303;28;20131;-75
2023/07/24 12:15:05;;;;;;;8.23;4.70;;;;;;;;;;5073992;28;20070;-75
2023/07/24 12:17:31;;;;;;;9.80;5.25;;;;;;;;;;5056018;28;20484;-75
2023/07/24 12:19:57;;;;;;;8.88;5.00;;;;;;;;;;5073996;28;20049;-75
2023/07/24 12:22:23;;;;;;;8.63;4.40;;;;;;;;;;5073870;28;20044;-75
2023/07/24 12:24:49;;;;;;;11.40;5.22;;;;;;;;;;5087640;28;20077;-75
2023/07/24 12:27:15;;;;;;;7.63;4.97;;;;;;;;;;5094343;28;20131;-76
2023/07/24 12:29:41;;;;;;;9.43;4.72;;;;;;;;;;5094233;28;20168;-75
2023/07/24 12:32:07;;;;;;;11.13;4.65;;;;;;;;;;5094695;28;20073;-75
2023/07/24 12:34:33;;;;;;;9.00;5.20;;;;;;;;;;5079144;28;20122;-74
2023/07/24 12:37:00;;;;;;;9.68;5.70;;;;;;;;;;5100375;28;20377;-73
2023/07/24 12:39:26;;;;;;;10.88;5.70;;;;;;;;;;5096215;28;20036;-74
2023/07/24 12:41:52;;;;;;;9.38;5.47;;;;;;;;;;5094391;28;20043;-74
2023/07/24 12:44:18;;;;;;;9.55;5.78;;;;;;;;;;5093684;28;20560;-75
2023/07/24 12:46:44;;;;;;;11.90;6.43;;;;;;;;;;5094071;28;20091;-74
2023/07/24 12:49:10;;;;;;;8.07;6.72;;;;;;;;;;5093944;28;20044;-75
2023/07/24 12:51:36;;;;;;;10.20;7.15;;;;;;;;;;5094112;28;20062;-75
2023/07/24 12:54:03;;;;;;;12.93;7.07;;;;;;;;;;5093832;28;20054;-75
2023/07/24 12:56:29;;;;;;;8.77;6.80;;;;;;;;;;5093720;28;20453;-75
2023/07/24 12:58:55;;;;;;;10.35;7.15;;;;;;;;;;5093711;28;20126;-75
2023/07/24 13:01:21;;;;;;;7.53;6.13;;;;;;;;;;5093794;28;20435;-75
2023/07/24 13:03:47;;;;;;;9.57;6.35;;;;;;;;;;5093348;28;20039;-75
2023/07/24 13:06:13;;;;;;;8.93;5.78;;;;;;;;;;5093516;28;20080;-75
2023/07/24 13:08:39;;;;;;;6.63;4.93;;;;;;;;;;5093373;28;20115;-75
2023/07/24 13:11:05;;;;;;;7.05;4.47;;;;;;;;;;5093418;28;20044;-75
2023/07/24 13:13:32;;;;;;;6.95;4.57;;;;;;;;;;5074908;28;20044;-76
2023/07/24 13:15:58;;;;;;;7.35;4.43;;;;;;;;;;5093305;28;20039;-75
2023/07/24 13:18:24;;;;;;;6.57;4.60;;;;;;;;;;5075101;28;20056;-75
2023/07/24 13:20:50;;;;;;;7.32;4.65;;;;;;;;;;5074543;28;20048;-75
2023/07/24 13:23:16;;;;;;;8.13;4.78;;;;;;;;;;5072697;28;20051;-75
2023/07/24 13:25:42;;;;;;;9.60;4.68;;;;;;;;;;5071966;28;20051;-75
2023/07/24 13:28:08;;;;;;;7.00;4.57;;;;;;;;;;5072643;28;20036;-74
2023/07/24 13:30:34;;;;;;;8.50;4.60;;;;;;;;;;5054860;28;20040;-76
2023/07/24 13:33:01;;;;;;;7.40;4.60;;;;;;;;;;5072823;28;20454;-76
2023/07/24 13:35:27;;;;;;;7.50;5.50;;;;;;;;;;5072499;28;20045;-76
2023/07/24 13:37:53;;;;;;;8.20;5.20;;;;;;;;;;5072479;28;20040;-75
2023/07/24 13:40:19;;;;;;;4.97;2.95;;;;;;;;;;5072470;28;20573;-75
2023/07/24 13:42:46;;;;;;;3.53;2.38;;;;;;;;;;5072392;28;20485;-75
2023/07/24 13:45:12;;;;;;;3.47;2.10;;;;;;;;;;5071748;28;20186;-74
2023/07/24 13:47:38;;;;;;;5.57;2.40;;;;;;;;;;5072005;28;20055;-76
2023/07/24 13:50:04;;;;;;;5.75;2.40;;;;;;;;;;5070241;28;20048;-75
2023/07/24 13:52:30;;;;;;;7.53;2.28;;;;;;;;;;5052508;28;20044;-75
2023/07/24 13:54:56;;;;;;;6.10;2.30;;;;;;;;;;5071270;28;20063;-75
2023/07/24 13:57:23;;;;;;;7.40;2.30;;;;;;;;;;5054461;28;20436;-75
2023/07/24 13:59:49;;;;;;;4.00;2.25;;;;;;;;;;5054174;28;20119;-75
2023/07/24 14:02:15;;;;;;;7.40;2.50;;;;;;;;;;5037724;28;20054;-75
2023/07/24 14:04:41;;;;;;;8.38;2.50;;;;;;;;;;5071838;28;20094;-75
2023/07/24 14:07:07;;;;;;;7.70;2.38;;;;;;;;;;5054455;28;20396;-76
2023/07/24 14:09:34;;;;;;;8.52;2.33;;;;;;;;;;5072274;28;20086;-75
2023/07/24 14:12:01;;;;;;;5.72;2.10;;;;;;;;;;5072117;28;20357;-75
2023/07/24 14:14:27;;;;;;;8.32;2.40;;;;;;;;;;5071866;28;20127;-75
2023/07/24 14:16:53;;;;;;;8.77;2.85;;;;;;;;;;5054067;28;20050;-75
2023/07/24 14:19:19;;;;;;;11.25;3.08;;;;;;;;;;5054422;28;20045;-75
2023/07/24 14:21:45;;;;;;;9.85;2.92;;;;;;;;;;5054025;28;20080;-74
2023/07/24 14:24:12;;;;;;;12.32;2.90;;;;;;;;;;5071629;28;20051;-75